Time;durP1;ratioP1;P1;durP2;ratioP2;P2;SDS_P1;SDS_P2;PMS_P1;PMS_P2;Temp;Humidity;BMP_temperature;BMP_pressure;BME280_temperature;BME280_humidity;BME280_pressure;Samples;Min_cycle;Max_cycle;Signal;HPM_P1;HPM_P2
2021/10/19 00:01:58;;;;;;;5.72;2.62;;;;;;;7.50;90.18;97497.14;1809482;77;21196;-81
2021/10/19 00:04:23;;;;;;;6.62;3.10;;;;;;;7.50;90.21;97506.19;1809733;78;21143;-81
2021/10/19 00:06:50;;;;;;;5.33;3.52;;;;;;;7.51;90.25;97505.72;1799353;77;21273;-81
2021/10/19 00:09:16;;;;;;;4.90;3.25;;;;;;;7.48;90.23;97499.49;1771533;77;21064;-81
2021/10/19 00:11:42;;;;;;;4.90;3.12;;;;;;;7.45;90.45;97504.94;1812008;76;21058;-81
2021/10/19 00:14:08;;;;;;;5.92;2.90;;;;;;;7.42;90.54;97505.22;1788208;77;21094;-81
2021/10/19 00:16:34;;;;;;;3.72;2.83;;;;;;;7.40;90.58;97501.47;1791912;77;21117;-81
2021/10/19 00:19:00;;;;;;;6.42;3.17;;;;;;;7.39;90.61;97502.91;1780261;77;21493;-81
2021/10/19 00:21:25;;;;;;;4.22;2.80;;;;;;;7.42;90.54;97506.51;1762178;79;21140;-81
2021/10/19 00:23:51;;;;;;;5.47;2.92;;;;;;;7.38;90.42;97502.09;1816647;77;21068;-81
2021/10/19 00:26:17;;;;;;;3.70;2.22;;;;;;;7.46;90.31;97507.87;1789755;76;21067;-81
2021/10/19 00:28:43;;;;;;;4.33;2.40;;;;;;;7.47;90.17;97505.14;1803680;77;21400;-80
2021/10/19 00:31:10;;;;;;;4.67;2.40;;;;;;;7.46;90.16;97507.87;1795779;78;21046;-81
2021/10/19 00:33:36;;;;;;;3.98;2.70;;;;;;;7.46;90.23;97502.70;1780959;78;21057;-81
2021/10/19 00:36:02;;;;;;;3.65;2.40;;;;;;;7.50;90.43;97507.96;1760460;77;21485;-81
2021/10/19 00:38:30;;;;;;;3.92;2.90;;;;;;;7.49;90.46;97511.02;1787534;78;21015;-81
2021/10/19 00:40:55;;;;;;;5.30;2.45;;;;;;;7.46;90.47;97503.52;1773914;77;21367;-81
2021/10/19 00:43:21;;;;;;;4.40;2.37;;;;;;;7.45;90.52;97503.65;1774562;78;21136;-81
2021/10/19 00:45:47;;;;;;;4.60;2.60;;;;;;;7.44;90.55;97504.60;1788392;77;21550;-81
2021/10/19 00:48:16;;;;;;;3.37;2.40;;;;;;;7.46;90.60;97505.28;1780032;79;21064;-81
2021/10/19 00:53:07;;;;;;;3.80;2.92;;;;;;;7.51;90.73;97488.91;1796267;78;21480;-81
2021/10/19 00:55:33;;;;;;;3.65;2.95;;;;;;;7.53;90.88;97492.98;1788689;78;21048;-81
2021/10/19 00:58:04;;;;;;;5.35;2.90;;;;;;;7.57;91.00;97494.00;1773867;78;21034;-81
2021/10/19 01:00:30;;;;;;;4.53;2.75;;;;;;;7.57;91.15;97490.94;1738964;78;21419;-81
2021/10/19 01:02:56;;;;;;;4.97;3.08;;;;;;;7.65;91.33;97487.69;1760435;78;21079;-81
2021/10/19 01:05:23;;;;;;;4.33;2.42;;;;;;;7.68;90.99;97486.12;1807976;77;21127;-81
2021/10/19 01:07:49;;;;;;;3.70;2.70;;;;;;;7.71;90.93;97485.36;1799787;77;21038;-81
2021/10/19 01:10:15;;;;;;;3.70;2.25;;;;;;;7.73;90.89;97481.34;1791407;77;21118;-81
2021/10/19 01:12:42;;;;;;;3.72;2.50;;;;;;;7.75;91.02;97477.66;1789965;78;21174;-81
2021/10/19 01:15:12;;;;;;;5.85;2.42;;;;;;;7.77;90.89;97472.34;1787791;78;21118;-81
2021/10/19 01:17:44;;;;;;;3.27;2.62;;;;;;;7.79;90.75;97476.42;1732922;81;21103;-81
2021/10/19 01:20:19;;;;;;;2.92;2.65;;;;;;;7.79;90.61;97475.61;1777645;78;21694;-81
2021/10/19 01:22:45;;;;;;;3.67;2.47;;;;;;;7.82;90.41;97481.83;1755443;79;21036;-81
2021/10/19 01:25:17;;;;;;;3.58;1.90;;;;;;;7.88;90.55;97480.45;1782631;78;22585;-81
2021/10/19 01:27:51;;;;;;;2.85;2.02;;;;;;;7.88;90.54;97478.67;1714291;79;21122;-81
2021/10/19 01:30:17;;;;;;;2.80;1.82;;;;;;;7.89;90.48;97476.91;1739067;80;21166;-81
2021/10/19 01:32:44;;;;;;;3.50;2.10;;;;;;;7.89;90.14;97473.84;1770355;79;21384;-81
2021/10/19 01:35:10;;;;;;;3.20;2.40;;;;;;;7.90;90.12;97476.77;1757225;78;21011;-80
2021/10/19 01:37:36;;;;;;;2.87;2.33;;;;;;;7.94;90.09;97474.23;1785927;79;21145;-81
2021/10/19 01:40:10;;;;;;;3.62;2.55;;;;;;;7.94;90.09;97469.53;1795993;78;21079;-81
2021/10/19 01:42:36;;;;;;;6.20;2.30;;;;;;;7.90;89.95;97469.00;1782696;78;21116;-80
2021/10/19 01:45:03;;;;;;;3.58;2.42;;;;;;;7.86;90.05;97467.66;1775631;79;21411;-81
2021/10/19 01:47:29;;;;;;;3.85;2.40;;;;;;;7.85;89.69;97465.20;1786599;79;21111;-81
2021/10/19 01:49:55;;;;;;;3.55;2.50;;;;;;;7.88;89.98;97464.44;1816742;77;21118;-81
2021/10/19 01:52:21;;;;;;;2.27;1.80;;;;;;;7.86;89.66;97462.47;1785476;79;21171;-81
2021/10/19 01:54:46;;;;;;;4.30;2.83;;;;;;;7.89;89.86;97467.84;1804621;77;21140;-81
2021/10/19 01:57:12;;;;;;;2.83;2.30;;;;;;;7.89;89.65;97457.02;1821319;77;21043;-81
2021/10/19 01:59:38;;;;;;;3.87;2.45;;;;;;;7.89;89.68;97451.84;1788882;79;21114;-81
2021/10/19 02:02:04;;;;;;;3.52;2.67;;;;;;;7.90;89.52;97451.36;1772403;78;21117;-81
2021/10/19 02:04:29;;;;;;;4.87;2.70;;;;;;;7.93;89.50;97448.02;1774408;78;21510;-81
2021/10/19 02:06:55;;;;;;;3.15;2.45;;;;;;;7.96;89.61;97451.61;1780275;78;21182;-81
2021/10/19 02:09:21;;;;;;;2.75;2.40;;;;;;;7.95;89.40;97440.92;1789865;77;21078;-81
2021/10/19 02:11:46;;;;;;;2.70;2.17;;;;;;;7.95;89.28;97439.63;1801188;77;21201;-81
2021/10/19 02:14:12;;;;;;;3.22;2.22;;;;;;;7.94;89.21;97438.00;1767255;78;21103;-81
2021/10/19 02:16:39;;;;;;;2.47;2.22;;;;;;;7.92;88.94;97426.97;1782046;77;21091;-81
2021/10/19 02:19:05;;;;;;;4.12;2.58;;;;;;;7.92;88.96;97429.56;1776808;78;21398;-81
2021/10/19 02:21:30;;;;;;;3.30;2.45;;;;;;;7.94;88.90;97428.12;1761729;78;21038;-81
2021/10/19 02:23:56;;;;;;;2.67;2.00;;;;;;;7.93;89.04;97427.31;1784341;78;21042;-81
2021/10/19 02:26:22;;;;;;;3.70;2.20;;;;;;;7.90;88.98;97422.89;1803537;77;21124;-81
2021/10/19 02:28:47;;;;;;;3.02;1.90;;;;;;;7.89;88.81;97422.56;1780215;78;21426;-81
2021/10/19 02:31:13;;;;;;;2.95;1.75;;;;;;;7.92;89.05;97420.98;1802227;77;21038;-81
2021/10/19 02:33:39;;;;;;;4.03;2.62;;;;;;;7.91;89.03;97412.88;1795310;78;21042;-81
2021/10/19 02:36:05;;;;;;;3.08;2.42;;;;;;;7.91;89.10;97416.77;1765745;79;21119;-81
2021/10/19 02:38:31;;;;;;;2.98;2.02;;;;;;;7.92;89.08;97422.27;1767331;77;21505;-81
2021/10/19 02:40:57;;;;;;;2.98;1.90;;;;;;;7.91;89.10;97423.23;1801085;78;21073;-81
2021/10/19 02:43:22;;;;;;;3.92;2.00;;;;;;;7.93;89.08;97423.42;1797672;77;21034;-81
2021/10/19 02:45:49;;;;;;;1.95;1.47;;;;;;;7.96;89.33;97432.68;1756555;79;21046;-81
2021/10/19 02:48:15;;;;;;;4.28;2.10;;;;;;;7.97;89.07;97435.16;1769247;79;21125;-81
2021/10/19 02:50:40;;;;;;;2.30;1.87;;;;;;;8.02;89.06;97432.14;1794115;78;21101;-82
2021/10/19 02:53:06;;;;;;;3.52;2.27;;;;;;;8.06;89.01;97437.37;1791475;78;21134;-81
2021/10/19 02:55:32;;;;;;;4.55;1.80;;;;;;;8.07;88.86;97431.23;1781298;79;21090;-81
2021/10/19 02:57:59;;;;;;;2.60;1.77;;;;;;;8.07;88.48;97429.45;1784571;78;21056;-81
2021/10/19 03:00:25;;;;;;;3.02;1.67;;;;;;;8.08;88.83;97424.62;1784452;79;22277;-81
2021/10/19 03:02:50;;;;;;;2.70;1.90;;;;;;;8.08;88.68;97422.51;1767317;79;21058;-83
2021/10/19 03:05:16;;;;;;;2.65;1.30;;;;;;;8.09;88.62;97418.48;1798525;77;20990;-81
2021/10/19 03:07:42;;;;;;;3.55;1.80;;;;;;;8.14;88.29;97420.67;1761303;79;21035;-81
2021/10/19 03:10:08;;;;;;;3.27;1.92;;;;;;;8.13;88.60;97408.20;1787101;77;21058;-82
2021/10/19 03:12:34;;;;;;;2.67;2.10;;;;;;;8.13;88.46;97407.36;1802862;77;21078;-81
2021/10/19 03:15:00;;;;;;;2.77;2.15;;;;;;;8.12;88.58;97403.14;1764875;79;21018;-81
2021/10/19 03:17:25;;;;;;;2.45;1.85;;;;;;;8.07;88.50;97394.52;1787347;78;21516;-81
2021/10/19 03:19:51;;;;;;;3.95;2.02;;;;;;;8.05;88.48;97405.97;1738413;80;21059;-81
2021/10/19 03:22:17;;;;;;;2.22;1.45;;;;;;;8.03;88.30;97410.00;1757080;77;21017;-81
2021/10/19 03:24:43;;;;;;;2.50;1.60;;;;;;;8.03;88.30;97412.59;1753638;79;21121;-81
2021/10/19 03:27:09;;;;;;;2.65;2.00;;;;;;;8.04;88.21;97403.86;1785451;78;21077;-81
2021/10/19 03:29:34;;;;;;;2.45;1.90;;;;;;;8.01;88.15;97408.52;1791068;77;21131;-81
2021/10/19 03:32:00;;;;;;;3.58;2.58;;;;;;;7.98;87.87;97406.20;1785544;78;21403;-81
2021/10/19 03:34:26;;;;;;;2.85;1.90;;;;;;;7.99;88.09;97405.25;1796193;77;21113;-81
2021/10/19 03:36:52;;;;;;;3.00;1.80;;;;;;;7.97;88.02;97397.62;1791993;77;21867;-81
2021/10/19 03:39:18;;;;;;;2.92;1.65;;;;;;;7.98;87.92;97397.15;1788175;78;21122;-81
2021/10/19 03:41:44;;;;;;;2.90;1.92;;;;;;;7.98;87.91;97397.15;1791385;78;21116;-81
2021/10/19 03:44:10;;;;;;;2.35;1.70;;;;;;;7.95;87.97;97403.88;1776157;78;21050;-81
2021/10/19 03:46:36;;;;;;;2.30;1.70;;;;;;;7.91;87.83;97396.88;1790606;78;21432;-81
2021/10/19 03:49:01;;;;;;;2.55;1.75;;;;;;;7.89;87.95;97403.16;1774117;78;21393;-81
2021/10/19 03:51:27;;;;;;;2.47;1.80;;;;;;;7.86;88.08;97400.85;1791390;77;21066;-81
2021/10/19 03:53:53;;;;;;;2.70;1.62;;;;;;;7.88;88.38;97400.23;1791669;77;21027;-81
2021/10/19 03:56:18;;;;;;;2.45;1.85;;;;;;;7.90;88.42;97396.54;1792063;78;20963;-81
2021/10/19 03:58:45;;;;;;;1.60;1.42;;;;;;;7.92;88.21;97400.28;1790417;78;21413;-81
2021/10/19 04:01:11;;;;;;;3.15;1.87;;;;;;;7.90;88.03;97396.54;1763391;78;21069;-81
2021/10/19 04:03:37;;;;;;;3.95;1.50;;;;;;;7.89;88.05;97392.80;1785713;78;21125;-81
2021/10/19 04:06:02;;;;;;;3.17;1.80;;;;;;;7.86;88.10;97392.61;1788214;77;21178;-81
2021/10/19 04:08:28;;;;;;;3.75;1.85;;;;;;;7.83;88.27;97391.60;1780002;79;21083;-81
2021/10/19 04:10:54;;;;;;;3.12;2.27;;;;;;;7.79;88.32;97394.11;1797637;78;21483;-81
2021/10/19 04:13:20;;;;;;;2.02;1.50;;;;;;;7.79;88.51;97385.05;1792121;77;21485;-81
2021/10/19 04:15:46;;;;;;;2.10;1.45;;;;;;;7.75;88.59;97388.41;1790315;77;21069;-81
2021/10/19 04:18:11;;;;;;;3.30;1.55;;;;;;;7.76;88.56;97387.44;1772193;79;21039;-81
2021/10/19 04:20:37;;;;;;;2.30;1.52;;;;;;;7.79;88.63;97393.63;1783903;78;21458;-81
2021/10/19 04:23:03;;;;;;;3.42;1.80;;;;;;;7.82;88.65;97391.27;1788963;78;21492;-81
2021/10/19 04:25:28;;;;;;;4.42;1.77;;;;;;;7.82;88.75;97391.27;1789242;77;21035;-81
2021/10/19 04:27:54;;;;;;;2.12;1.50;;;;;;;7.83;88.81;97396.77;1760605;79;21083;-81
2021/10/19 04:30:20;;;;;;;2.72;1.50;;;;;;;7.83;88.76;97391.12;1785571;78;21058;-81
2021/10/19 04:32:46;;;;;;;1.90;1.30;;;;;;;7.83;88.77;97389.83;1791150;77;21173;-81
2021/10/19 04:35:13;;;;;;;1.80;1.25;;;;;;;7.80;88.78;97390.56;1780935;78;21462;-81
2021/10/19 04:37:39;;;;;;;1.47;1.10;;;;;;;7.77;88.81;97380.02;1788506;77;21460;-81
2021/10/19 04:40:06;;;;;;;2.30;1.95;;;;;;;7.82;88.83;97385.61;1775760;78;21044;-81
2021/10/19 04:42:37;;;;;;;7.33;3.25;;;;;;;7.83;88.76;97392.89;1769495;79;21163;-81
2021/10/19 04:45:02;;;;;;;1.87;1.27;;;;;;;7.84;88.66;97391.94;1752799;78;21171;-81
2021/10/19 04:47:28;;;;;;;2.58;1.45;;;;;;;7.79;88.60;97393.63;1784908;79;21074;-81
2021/10/19 04:49:58;;;;;;;1.92;1.25;;;;;;;7.79;88.86;97392.81;1759841;78;21059;-81
2021/10/19 04:52:22;;;;;;;1.90;1.20;;;;;;;7.81;88.73;97395.63;1778368;79;21040;-81
2021/10/19 04:54:48;;;;;;;1.90;1.12;;;;;;;7.81;88.49;97396.10;1736824;79;21051;-81
2021/10/19 04:57:13;;;;;;;3.20;1.10;;;;;;;7.80;88.58;97391.85;1753050;80;21162;-81
2021/10/19 04:59:39;;;;;;;2.40;1.10;;;;;;;7.76;88.61;97388.73;1743722;80;22147;-81
2021/10/19 05:02:05;;;;;;;1.90;1.70;;;;;;;7.79;88.73;97391.52;1796160;77;21548;-81
2021/10/19 05:04:31;;;;;;;2.00;1.30;;;;;;;7.76;88.71;97399.09;1767363;77;21454;-81
2021/10/19 05:06:56;;;;;;;4.80;2.30;;;;;;;7.68;88.26;97392.98;1752934;79;21113;-81
2021/10/19 05:09:22;;;;;;;1.72;1.30;;;;;;;7.64;88.20;97396.30;1771109;79;21087;-80
2021/10/19 05:11:48;;;;;;;1.50;0.90;;;;;;;7.62;88.46;97398.22;1758171;80;21059;-81
2021/10/19 05:14:14;;;;;;;1.75;1.05;;;;;;;7.60;88.62;97397.55;1815858;77;21035;-81
2021/10/19 05:16:40;;;;;;;1.55;0.80;;;;;;;7.60;88.79;97401.42;1763417;79;21137;-81
2021/10/19 05:19:06;;;;;;;2.27;0.98;;;;;;;7.62;88.85;97394.34;1740405;79;21545;-81
2021/10/19 05:21:31;;;;;;;1.67;0.90;;;;;;;7.61;88.90;97399.66;1757545;80;22456;-81
2021/10/19 05:23:58;;;;;;;1.45;0.70;;;;;;;7.62;88.94;97396.92;1753652;79;21093;-81
2021/10/19 05:26:24;;;;;;;0.95;0.80;;;;;;;7.65;89.01;97405.73;1733807;79;21477;-81
2021/10/19 05:28:49;;;;;;;1.30;0.80;;;;;;;7.70;88.94;97400.95;1762385;79;21086;-81
2021/10/19 05:31:15;;;;;;;1.22;0.80;;;;;;;7.72;88.97;97407.27;1803183;78;21399;-81
2021/10/19 05:33:41;;;;;;;1.35;0.90;;;;;;;7.73;89.08;97407.61;1750808;78;21051;-82
2021/10/19 05:36:08;;;;;;;1.65;0.80;;;;;;;7.74;89.13;97404.88;1793718;77;21058;-81
2021/10/19 05:38:35;;;;;;;1.00;0.80;;;;;;;7.77;89.15;97412.36;1771518;80;21493;-81
2021/10/19 05:41:02;;;;;;;1.05;0.80;;;;;;;7.80;89.10;97413.37;1734746;80;21038;-81
2021/10/19 05:43:28;;;;;;;0.62;0.57;;;;;;;7.80;88.96;97430.19;1778264;79;21079;-81
2021/10/19 05:45:54;;;;;;;2.05;0.80;;;;;;;7.83;89.07;97430.41;1799530;78;21102;-81
2021/10/19 05:48:19;;;;;;;1.12;0.78;;;;;;;7.84;89.11;97430.75;1819654;77;21117;-81
2021/10/19 05:50:45;;;;;;;2.33;1.15;;;;;;;7.90;89.35;97429.37;1815978;78;21203;-81
2021/10/19 05:53:11;;;;;;;2.72;1.22;;;;;;;7.94;89.43;97440.59;1825599;77;21083;-81
2021/10/19 05:55:37;;;;;;;4.03;2.70;;;;;;;7.98;89.32;97445.84;1836576;77;21218;-81
2021/10/19 05:58:04;;;;;;;6.45;3.95;;;;;;;7.99;89.05;97440.19;1815087;77;21048;-81
2021/10/19 06:00:31;;;;;;;4.50;2.50;;;;;;;7.97;89.06;97439.48;1834241;77;21031;-81
2021/10/19 06:02:57;;;;;;;2.40;1.27;;;;;;;7.96;89.18;97441.26;1818008;78;21087;-81
2021/10/19 06:05:23;;;;;;;4.10;1.10;;;;;;;8.02;89.48;97442.49;1816310;77;21077;-81
2021/10/19 06:07:51;;;;;;;2.15;1.25;;;;;;;8.06;89.71;97445.13;1825556;77;20991;-81
2021/10/19 06:10:21;;;;;;;2.30;1.20;;;;;;;8.08;89.75;97444.52;1819728;77;21089;-81
2021/10/19 06:12:44;;;;;;;1.75;1.17;;;;;;;8.14;89.85;97447.86;1827102;77;21050;-81
2021/10/19 06:15:09;;;;;;;2.02;1.17;;;;;;;8.24;89.76;97455.09;1820598;77;21430;-81
2021/10/19 06:17:35;;;;;;;1.70;1.17;;;;;;;8.31;89.82;97449.71;1820314;77;21042;-81
2021/10/19 06:20:01;;;;;;;6.08;3.15;;;;;;;8.35;89.84;97445.91;1748021;80;21126;-81
2021/10/19 06:22:27;;;;;;;6.25;4.45;;;;;;;8.37;89.44;97449.16;1782176;78;21047;-80
2021/10/19 06:24:53;;;;;;;6.25;4.45;;;;;;;8.38;88.95;97440.92;1734657;78;21470;-81
2021/10/19 06:27:19;;;;;;;6.53;4.70;;;;;;;8.47;89.10;97439.26;1765810;80;21093;-81
2021/10/19 06:29:44;;;;;;;4.58;2.83;;;;;;;8.52;89.31;97448.70;1733379;80;21087;-81
2021/10/19 06:32:10;;;;;;;5.42;4.10;;;;;;;8.59;89.29;97449.27;1752856;80;21031;-81
2021/10/19 06:34:36;;;;;;;7.22;4.35;;;;;;;8.69;89.22;97454.42;1749238;80;21082;-81
2021/10/19 06:37:02;;;;;;;4.55;3.40;;;;;;;8.76;89.24;97452.06;1744485;81;21510;-82
2021/10/19 06:39:28;;;;;;;3.30;2.58;;;;;;;8.79;89.47;97449.20;1757632;78;21051;-81
2021/10/19 06:41:54;;;;;;;8.78;7.03;;;;;;;8.83;89.81;97447.95;1733871;81;21173;-81
2021/10/19 06:44:20;;;;;;;9.65;8.05;;;;;;;8.88;89.75;97441.84;1749167;80;21027;-80
2021/10/19 06:46:47;;;;;;;3.15;2.20;;;;;;;8.92;89.61;97437.99;1751823;79;21635;-81
2021/10/19 06:49:13;;;;;;;2.72;1.42;;;;;;;8.99;88.30;97435.17;1756761;80;21146;-81
2021/10/19 06:51:40;;;;;;;3.90;3.12;;;;;;;9.10;87.74;97432.83;1765433;79;21098;-81
2021/10/19 06:54:06;;;;;;;5.40;4.90;;;;;;;9.18;87.30;97436.34;1807571;78;21185;-81
2021/10/19 06:56:32;;;;;;;2.83;2.40;;;;;;;9.25;86.94;97438.66;1781059;78;21134;-81
2021/10/19 06:58:57;;;;;;;3.33;2.40;;;;;;;9.28;87.15;97438.88;1710008;81;21154;-81
2021/10/19 07:01:23;;;;;;;1.85;1.57;;;;;;;9.30;87.23;97445.54;1796033;77;21491;-81
2021/10/19 07:03:49;;;;;;;5.45;3.37;;;;;;;9.32;86.90;97435.02;1722109;80;21126;-81
2021/10/19 07:06:15;;;;;;;2.60;2.40;;;;;;;9.33;86.23;97428.38;1783714;79;21107;-81
2021/10/19 07:08:40;;;;;;;4.33;3.20;;;;;;;9.39;85.02;97426.96;1770660;77;21106;-81
2021/10/19 07:11:07;;;;;;;3.05;2.33;;;;;;;9.48;83.73;97423.48;1779742;78;21137;-81
2021/10/19 07:13:33;;;;;;;2.58;1.85;;;;;;;9.56;82.35;97420.13;1741738;80;21119;-81
2021/10/19 07:15:59;;;;;;;2.55;1.80;;;;;;;9.62;83.27;97416.95;1779556;77;21144;-81
2021/10/19 07:18:25;;;;;;;2.35;1.80;;;;;;;9.66;82.76;97412.28;1775164;78;21051;-81
2021/10/19 07:20:52;;;;;;;4.65;1.57;;;;;;;9.68;82.38;97407.27;1766166;78;21586;-81
2021/10/19 07:23:18;;;;;;;2.47;1.90;;;;;;;9.74;82.55;97409.23;1794188;78;21139;-82
2021/10/19 07:25:44;;;;;;;3.25;2.42;;;;;;;9.80;82.10;97407.84;1796292;79;21507;-81
2021/10/19 07:28:10;;;;;;;3.85;3.40;;;;;;;9.86;82.25;97404.14;1773610;78;21122;-82
2021/10/19 07:30:36;;;;;;;3.75;2.47;;;;;;;9.89;82.18;97400.42;1757002;78;21142;-81
2021/10/19 07:33:02;;;;;;;6.80;3.62;;;;;;;9.89;82.21;97406.91;1757234;79;21179;-81
2021/10/19 07:35:28;;;;;;;2.25;1.67;;;;;;;9.87;82.09;97405.77;1774534;79;21032;-81
2021/10/19 07:37:54;;;;;;;5.20;3.08;;;;;;;9.86;82.55;97408.04;1761349;80;21118;-81
2021/10/19 07:40:20;;;;;;;8.20;5.50;;;;;;;9.88;81.66;97402.20;1769545;80;21466;-81
2021/10/19 07:42:46;;;;;;;3.77;2.50;;;;;;;9.92;81.27;97407.45;1775169;78;21101;-81
2021/10/19 07:45:12;;;;;;;2.40;1.50;;;;;;;9.98;81.08;97411.69;1775352;77;21097;-81
2021/10/19 07:47:43;;;;;;;3.65;1.80;;;;;;;10.02;80.28;97413.82;1758013;79;21139;-81
2021/10/19 07:50:11;;;;;;;4.23;1.70;;;;;;;10.08;80.38;97420.98;1795172;78;21115;-81
2021/10/19 07:52:37;;;;;;;3.17;1.72;;;;;;;10.13;80.29;97420.55;1769358;79;21200;-81
2021/10/19 07:55:04;;;;;;;2.20;1.70;;;;;;;10.16;79.77;97417.16;1742150;80;21178;-82
2021/10/19 07:57:30;;;;;;;2.45;1.82;;;;;;;10.21;79.69;97421.43;1747726;80;21097;-81
2021/10/19 07:59:56;;;;;;;2.55;1.65;;;;;;;10.29;79.40;97428.47;1709326;81;21410;-81
2021/10/19 08:02:22;;;;;;;2.60;1.82;;;;;;;10.33;78.94;97426.38;1742170;82;21050;-81
2021/10/19 08:04:48;;;;;;;2.10;1.75;;;;;;;10.38;79.28;97424.92;1737955;82;21100;-81
2021/10/19 08:07:13;;;;;;;4.65;1.62;;;;;;;10.42;79.11;97430.16;1762816;79;21134;-81
2021/10/19 08:09:39;;;;;;;3.35;1.60;;;;;;;10.45;78.11;97427.73;1739827;80;21058;-81
2021/10/19 08:12:05;;;;;;;1.95;1.30;;;;;;;10.50;78.18;97424.18;1743512;81;21044;-81
2021/10/19 08:14:31;;;;;;;2.65;1.60;;;;;;;10.58;78.16;97432.52;1731591;80;21105;-81
2021/10/19 08:16:57;;;;;;;1.80;1.47;;;;;;;10.64;78.42;97428.80;1746066;80;21070;-81
2021/10/19 08:19:23;;;;;;;2.12;1.30;;;;;;;10.72;78.10;97438.39;1762755;80;21020;-81
2021/10/19 08:21:49;;;;;;;2.58;1.40;;;;;;;10.78;77.96;97436.00;1766330;80;21427;-81
2021/10/19 08:24:15;;;;;;;2.40;1.57;;;;;;;10.86;77.20;97430.48;1774895;78;21038;-81
2021/10/19 08:26:40;;;;;;;3.65;1.95;;;;;;;10.94;76.76;97435.73;1770248;78;21119;-81
2021/10/19 08:29:06;;;;;;;3.12;1.60;;;;;;;11.01;76.59;97438.83;1764960;79;21055;-81
2021/10/19 08:31:32;;;;;;;2.77;1.80;;;;;;;11.09;76.47;97434.95;1745704;79;21059;-81
2021/10/19 08:33:58;;;;;;;2.20;1.67;;;;;;;11.17;76.46;97432.84;1729610;81;21475;-81
2021/10/19 08:36:24;;;;;;;2.92;2.05;;;;;;;11.22;75.54;97431.87;1751800;79;21114;-81
2021/10/19 08:38:51;;;;;;;2.30;1.80;;;;;;;11.27;75.96;97437.44;1793956;77;21082;-82
2021/10/19 08:41:17;;;;;;;2.47;2.10;;;;;;;11.31;76.30;97447.84;1830206;77;21111;-82
2021/10/19 08:43:44;;;;;;;3.83;2.52;;;;;;;11.38;75.47;97441.00;1804434;77;21114;-82
2021/10/19 08:46:11;;;;;;;2.08;1.65;;;;;;;11.44;76.10;97433.06;1781442;78;21080;-81
2021/10/19 08:48:38;;;;;;;3.62;2.00;;;;;;;11.54;75.56;97423.29;1789641;78;21090;-82
2021/10/19 08:51:06;;;;;;;3.65;2.50;;;;;;;11.63;75.82;97424.13;1792983;78;21080;-82
2021/10/19 08:53:41;;;;;;;3.12;2.02;;;;;;;11.71;75.32;97423.65;1781643;78;21103;-82
2021/10/19 08:56:08;;;;;;;2.83;2.05;;;;;;;11.80;74.90;97423.66;1773982;78;21037;-82
2021/10/19 08:58:34;;;;;;;2.72;1.90;;;;;;;11.85;73.30;97422.19;1760751;78;21425;-82
2021/10/19 09:03:28;;;;;;;1.95;1.65;;;;;;;11.98;74.13;97437.31;1796539;78;21063;-81
2021/10/19 09:05:54;;;;;;;1.95;1.40;;;;;;;12.06;73.58;97437.32;1764752;78;21102;-82
2021/10/19 09:08:20;;;;;;;3.37;2.02;;;;;;;12.14;72.65;97435.98;1783722;79;21091;-81
2021/10/19 09:10:47;;;;;;;3.37;2.05;;;;;;;12.25;72.27;97442.17;1813470;77;21102;-82
2021/10/19 09:13:16;;;;;;;2.37;1.57;;;;;;;12.37;71.64;97445.24;1779284;78;21063;-82
2021/10/19 09:15:44;;;;;;;2.10;1.47;;;;;;;12.45;71.98;97445.70;1791047;77;21047;-82
2021/10/19 09:18:15;;;;;;;1.30;0.95;;;;;;;12.47;70.14;97446.34;1800492;78;21079;-82
2021/10/19 09:20:46;;;;;;;1.55;1.07;;;;;;;12.47;70.59;97439.83;1805555;78;21143;-82
2021/10/19 09:23:13;;;;;;;1.30;0.93;;;;;;;12.47;69.94;97426.79;1794650;77;21110;-82
2021/10/19 09:25:43;;;;;;;1.35;1.12;;;;;;;12.47;70.35;97423.69;1799191;78;21214;-82
2021/10/19 09:30:47;;;;;;;1.60;1.20;;;;;;;12.54;70.60;97425.97;1768225;79;21151;-82
2021/10/19 09:33:16;;;;;;;1.52;1.10;;;;;;;12.58;69.90;97419.91;1787291;79;21412;-82
2021/10/19 09:35:43;;;;;;;1.82;1.30;;;;;;;12.69;69.65;97406.98;1764716;78;21183;-82
2021/10/19 09:38:11;;;;;;;2.33;1.67;;;;;;;12.77;68.61;97403.86;1771998;78;21127;-82
2021/10/19 09:40:44;;;;;;;4.83;3.87;;;;;;;12.84;67.33;97396.97;1789077;79;22163;-82
2021/10/19 09:45:43;;;;;;;5.05;3.58;;;;;;;13.04;68.06;97376.99;1765891;77;21103;-82
2021/10/19 09:48:16;;;;;;;4.30;2.30;;;;;;;13.13;69.03;97374.14;1765972;79;21419;-82
2021/10/19 09:50:43;;;;;;;4.12;2.42;;;;;;;13.19;68.56;97365.67;1778004;77;21042;-82
2021/10/19 09:53:11;;;;;;;4.62;1.92;;;;;;;13.26;68.75;97373.59;1790060;77;21079;-82
2021/10/19 09:55:37;;;;;;;2.98;1.40;;;;;;;13.30;68.41;97383.19;1757481;78;21039;-82
2021/10/19 09:58:04;;;;;;;3.67;1.95;;;;;;;13.33;68.05;97383.65;1785021;79;21081;-82
2021/10/19 10:00:32;;;;;;;2.67;1.80;;;;;;;13.32;66.72;97380.72;1780040;78;21031;-82
2021/10/19 10:02:59;;;;;;;3.37;1.60;;;;;;;13.29;67.64;97382.88;1765348;77;21079;-82
2021/10/19 10:05:25;;;;;;;1.95;1.47;;;;;;;13.27;67.83;97388.77;1770504;79;21097;-82
2021/10/19 10:07:51;;;;;;;2.90;1.37;;;;;;;13.27;67.96;97389.58;1796344;77;21157;-82
2021/10/19 10:10:17;;;;;;;2.12;1.65;;;;;;;13.27;67.92;97393.48;1802367;77;21152;-82
2021/10/19 10:12:49;;;;;;;2.55;1.65;;;;;;;13.33;68.27;97385.45;1804566;77;21137;-82
2021/10/19 10:17:52;;;;;;;1.85;1.50;;;;;;;13.35;68.22;97386.11;1766828;79;21015;-83
2021/10/19 10:20:18;;;;;;;2.00;1.32;;;;;;;13.35;67.96;97386.92;1717353;81;21528;-82
2021/10/19 10:22:44;;;;;;;2.27;1.50;;;;;;;13.38;67.79;97390.98;1772949;78;21186;-82
2021/10/19 10:25:18;;;;;;;2.00;1.25;;;;;;;13.38;67.07;97385.76;1755084;80;21545;-82
2021/10/19 10:27:44;;;;;;;2.05;1.00;;;;;;;13.39;65.77;97387.37;1770612;78;21074;-82
2021/10/19 10:30:21;;;;;;;1.75;1.25;;;;;;;13.35;65.48;97379.09;1773264;79;21172;-82
2021/10/19 10:32:47;;;;;;;1.90;0.90;;;;;;;13.32;64.86;97384.64;1786364;78;21121;-83
2021/10/19 10:35:16;;;;;;;1.82;1.00;;;;;;;13.35;65.19;97387.42;1746697;80;21413;-82
2021/10/19 10:37:56;;;;;;;1.42;1.17;;;;;;;13.38;64.94;97380.05;1784439;78;21595;-82
2021/10/19 10:43:00;;;;;;;1.72;1.02;;;;;;;13.49;64.53;97370.47;1770930;79;21177;-83
2021/10/19 10:45:33;;;;;;;2.00;1.40;;;;;;;13.57;62.75;97370.91;1753154;79;21082;-83
2021/10/19 10:48:02;;;;;;;2.02;1.27;;;;;;;13.63;64.76;97361.55;1767628;78;21094;-82
2021/10/19 10:50:29;;;;;;;1.80;1.30;;;;;;;13.71;64.55;97354.97;1788363;78;21086;-83
2021/10/19 10:53:05;;;;;;;2.30;1.10;;;;;;;13.77;64.41;97358.16;1773075;79;21097;-83
2021/10/19 10:58:00;;;;;;;2.15;1.47;;;;;;;13.91;63.85;97339.58;1759588;79;21117;-83
2021/10/19 11:00:27;;;;;;;1.70;1.20;;;;;;;13.90;62.92;97338.77;1789462;78;22121;-83
2021/10/19 11:03:08;;;;;;;1.70;1.40;;;;;;;13.90;62.60;97340.08;1735458;79;21067;-82
2021/10/19 11:05:37;;;;;;;2.50;1.72;;;;;;;13.92;61.63;97334.67;1796721;78;21023;-83
2021/10/19 11:08:04;;;;;;;1.82;1.45;;;;;;;14.00;62.69;97334.60;1789910;78;21161;-82
2021/10/19 11:10:29;;;;;;;2.10;1.70;;;;;;;14.02;62.43;97329.51;1795872;78;21099;-83
2021/10/19 11:13:01;;;;;;;2.62;1.55;;;;;;;14.02;62.71;97338.65;1803511;77;21102;-83
2021/10/19 11:15:26;;;;;;;2.60;1.60;;;;;;;14.05;62.27;97339.59;1786163;79;21473;-83
2021/10/19 11:17:53;;;;;;;2.35;1.77;;;;;;;14.17;62.28;97337.34;1783503;78;21178;-83
2021/10/19 11:20:20;;;;;;;2.20;1.87;;;;;;;14.24;63.13;97326.47;1780480;79;21202;-83
2021/10/19 11:22:48;;;;;;;3.65;2.08;;;;;;;14.28;62.80;97332.14;1802834;77;21072;-82
2021/10/19 11:25:14;;;;;;;3.15;2.20;;;;;;;14.33;61.93;97333.23;1809610;77;21109;-83
2021/10/19 11:27:42;;;;;;;2.47;1.90;;;;;;;14.36;61.70;97335.98;1755038;79;21091;-83
2021/10/19 11:30:09;;;;;;;2.85;1.77;;;;;;;14.44;62.20;97334.59;1792422;79;21079;-83
2021/10/19 11:32:35;;;;;;;2.42;1.60;;;;;;;14.55;61.61;97332.02;1773264;80;21110;-83
2021/10/19 11:35:02;;;;;;;2.15;1.60;;;;;;;14.58;61.21;97323.30;1784612;77;21031;-83
2021/10/19 11:37:28;;;;;;;3.20;1.87;;;;;;;14.56;61.97;97327.09;1773629;79;21118;-83
2021/10/19 11:40:10;;;;;;;2.05;1.85;;;;;;;14.62;62.16;97324.55;1764918;77;21029;-83
2021/10/19 11:42:45;;;;;;;2.72;1.95;;;;;;;14.69;62.66;97322.02;1792424;77;21102;-83
2021/10/19 11:45:15;;;;;;;5.65;2.00;;;;;;;14.71;61.35;97320.02;1781703;77;21497;-82
2021/10/19 11:50:20;;;;;;;4.25;3.45;;;;;;;14.74;61.67;97310.99;1768755;77;21071;-83
2021/10/19 11:52:47;;;;;;;3.42;2.60;;;;;;;14.79;60.97;97314.66;1795828;78;21454;-83
2021/10/19 11:55:13;;;;;;;8.08;5.70;;;;;;;14.82;61.08;97297.81;1786558;78;21176;-83
2021/10/19 11:57:39;;;;;;;7.90;4.65;;;;;;;14.84;61.23;97291.39;1777941;78;21114;-83